createdAt,value
2019-04-19T00:01:18.461Z,9.67
2019-04-19T00:03:48.730Z,9.63
2019-04-19T00:06:29.450Z,9.83
2019-04-19T00:09:10.437Z,9.78
2019-04-19T00:11:33.474Z,9.72
2019-04-19T00:13:55.748Z,9.80
2019-04-19T00:16:24.293Z,9.72
2019-04-19T00:19:18.388Z,9.71
2019-04-19T00:21:39.477Z,9.84
2019-04-19T00:23:55.223Z,9.74
2019-04-19T00:26:24.573Z,9.71
2019-04-19T00:29:00.624Z,9.85
2019-04-19T00:31:34.083Z,9.73
2019-04-19T00:33:57.989Z,9.55
2019-04-19T00:36:25.912Z,9.74
2019-04-19T00:39:16.212Z,9.50
2019-04-19T00:42:00.957Z,9.62
2019-04-19T00:44:49.120Z,9.66
2019-04-19T00:47:17.755Z,9.64
2019-04-19T00:49:33.660Z,9.44
2019-04-19T00:52:05.172Z,9.54
2019-04-19T00:54:34.169Z,9.76
2019-04-19T00:57:03.038Z,9.70
2019-04-19T00:59:35.818Z,9.58
2019-04-19T01:02:04.727Z,9.64
2019-04-19T01:04:29.921Z,9.66
2019-04-19T01:07:00.933Z,9.57
2019-04-19T01:09:38.565Z,9.32
2019-04-19T01:12:10.754Z,9.44
2019-04-19T01:14:38.215Z,9.51
2019-04-19T01:17:13.909Z,9.23
2019-04-19T01:19:30.190Z,9.29
2019-04-19T01:22:01.778Z,9.32
2019-04-19T01:24:33.388Z,9.33
2019-04-19T01:27:00.669Z,9.47
2019-04-19T01:29:31.354Z,9.35
2019-04-19T01:32:06.126Z,9.26
2019-04-19T01:34:31.291Z,9.25
2019-04-19T01:37:03.587Z,9.22
2019-04-19T01:39:51.197Z,9.49
2019-04-19T01:42:21.120Z,9.15
2019-04-19T01:44:53.342Z,9.05
2019-04-19T01:47:52.645Z,9.20
2019-04-19T01:50:24.712Z,9.20
2019-04-19T01:53:03.518Z,8.98
2019-04-19T01:55:20.838Z,9.17
2019-04-19T01:57:43.350Z,8.96
2019-04-19T02:00:25.316Z,8.96
2019-04-19T02:02:52.086Z,9.06
2019-04-19T02:05:17.921Z,9.00
2019-04-19T02:07:48.692Z,8.90
2019-04-19T02:11:00.856Z,8.98
2019-04-19T02:13:31.025Z,9.06
2019-04-19T02:15:54.783Z,9.24
2019-04-19T02:18:27.393Z,9.18
2019-04-19T02:20:54.557Z,9.01
2019-04-19T02:23:24.105Z,9.31
2019-04-19T02:25:59.265Z,9.29
2019-04-19T02:28:29.358Z,9.15
2019-04-19T02:31:10.689Z,9.07
2019-04-19T02:33:55.090Z,9.20
2019-04-19T02:36:25.187Z,9.13
2019-04-19T02:39:02.089Z,9.17
2019-04-19T02:41:29.940Z,9.04
2019-04-19T02:46:40.622Z,9.03
2019-04-19T02:51:26.217Z,9.10
2019-04-19T02:53:56.169Z,9.02
2019-04-19T02:57:05.770Z,9.11
2019-04-19T02:59:49.184Z,9.09
2019-04-19T03:04:55.249Z,9.18
2019-04-19T03:06:52.041Z,9.18
2019-04-19T03:09:17.585Z,9.28
2019-04-19T03:12:03.515Z,9.34
2019-04-19T03:14:35.516Z,9.35
2019-04-19T03:17:05.547Z,9.41
2019-04-19T03:19:33.174Z,9.34
2019-04-19T03:22:01.520Z,9.48
2019-04-19T03:24:36.857Z,9.49
2019-04-19T03:27:00.156Z,9.51
2019-04-19T03:29:27.592Z,9.28
2019-04-19T03:32:41.111Z,9.46
2019-04-19T03:37:07.637Z,9.58
2019-04-19T03:39:44.583Z,9.44
2019-04-19T03:43:02.684Z,9.56
2019-04-19T03:45:19.204Z,9.60
2019-04-19T03:47:54.695Z,9.55
2019-04-19T03:50:20.018Z,9.55
2019-04-19T03:52:50.067Z,9.68
2019-04-19T03:55:22.342Z,9.67
2019-04-19T03:57:42.440Z,9.74
2019-04-19T04:00:04.806Z,9.68
2019-04-19T04:02:36.842Z,9.57
2019-04-19T04:05:09.756Z,9.48
2019-04-19T04:07:35.951Z,9.60
2019-04-19T04:10:21.039Z,9.43
2019-04-19T04:13:24.326Z,9.51
2019-04-19T04:16:09.906Z,9.42
2019-04-19T04:18:32.337Z,9.61
2019-04-19T04:21:02.262Z,9.56
2019-04-19T04:23:37.498Z,9.44
2019-04-19T04:26:08.325Z,9.39
2019-04-19T04:28:45.880Z,9.56
2019-04-19T04:31:13.362Z,9.61
2019-04-19T04:33:46.989Z,9.72
2019-04-19T04:36:25.430Z,9.66
2019-04-19T04:38:38.400Z,9.71
2019-04-19T04:41:11.191Z,9.74
2019-04-19T04:43:49.444Z,9.86
2019-04-19T04:46:46.307Z,9.71
2019-04-19T04:49:30.697Z,9.79
2019-04-19T04:51:52.276Z,9.85
2019-04-19T04:54:18.591Z,10.02
2019-04-19T04:57:02.429Z,9.88
2019-04-19T04:59:24.088Z,9.95
2019-04-19T05:02:03.023Z,9.96
2019-04-19T05:04:34.821Z,10.01
2019-04-19T05:07:10.227Z,9.98
2019-04-19T05:09:38.930Z,10.02
2019-04-19T05:12:44.602Z,10.24
2019-04-19T05:14:43.662Z,10.23
2019-04-19T05:17:30.466Z,10.28
2019-04-19T05:19:48.981Z,10.37
2019-04-19T05:22:11.737Z,10.37
2019-04-19T05:24:51.785Z,10.21
2019-04-19T05:27:22.148Z,10.51
2019-04-19T05:29:34.398Z,10.76
2019-04-19T05:32:09.277Z,10.67
2019-04-19T05:34:46.590Z,10.65
2019-04-19T05:37:13.991Z,10.82
2019-04-19T05:40:09.593Z,10.98
2019-04-19T05:43:02.148Z,10.87
2019-04-19T05:45:42.940Z,11.01
2019-04-19T05:47:56.684Z,10.97
2019-04-19T05:50:36.039Z,11.06
2019-04-19T05:53:04.273Z,11.24
2019-04-19T05:55:21.181Z,11.22
2019-04-19T05:58:06.337Z,11.24
2019-04-19T06:00:42.187Z,11.37
2019-04-19T06:03:06.473Z,11.37
2019-04-19T06:05:52.903Z,11.54
2019-04-19T06:08:05.368Z,11.67
2019-04-19T06:10:31.427Z,11.65
2019-04-19T06:13:01.510Z,11.92
2019-04-19T06:15:49.556Z,11.92
2019-04-19T06:18:31.862Z,11.87
2019-04-19T06:21:10.522Z,11.83
2019-04-19T06:23:45.545Z,11.88
2019-04-19T06:26:39.850Z,11.91
2019-04-19T06:28:52.312Z,12.01
2019-04-19T06:31:20.046Z,12.03
2019-04-19T06:33:43.095Z,12.02
2019-04-19T06:35:58.908Z,12.26
2019-04-19T06:38:22.687Z,12.26
2019-04-19T06:40:57.860Z,12.26
2019-04-19T06:43:34.814Z,12.42
2019-04-19T06:46:05.746Z,12.59
2019-04-19T06:48:27.074Z,12.74
2019-04-19T06:50:57.432Z,12.67
2019-04-19T06:53:23.207Z,12.72
2019-04-19T06:56:00.353Z,12.80
2019-04-19T06:58:27.287Z,13.80
2019-04-19T07:01:04.424Z,13.40
2019-04-19T07:03:23.671Z,13.12
2019-04-19T07:06:09.062Z,13.07
2019-04-19T07:09:04.091Z,13.13
2019-04-19T07:11:16.402Z,13.32
2019-04-19T07:13:37.425Z,13.25
2019-04-19T07:16:19.299Z,13.30
2019-04-19T07:18:39.170Z,13.78
2019-04-19T07:21:16.309Z,13.55
2019-04-19T07:23:45.144Z,13.75
2019-04-19T07:26:20.399Z,13.84
2019-04-19T07:28:30.638Z,13.77
2019-04-19T07:31:02.309Z,13.84
2019-04-19T07:33:41.494Z,13.72
2019-04-19T07:36:16.902Z,13.95
2019-04-19T07:38:55.184Z,13.93
2019-04-19T07:41:19.238Z,13.98
2019-04-19T07:43:59.338Z,14.06
2019-04-19T07:46:39.873Z,14.00
2019-04-19T07:48:53.609Z,14.12
2019-04-19T07:51:28.672Z,14.15
2019-04-19T07:53:54.635Z,14.19
2019-04-19T07:59:20.307Z,14.34
2019-04-19T08:02:07.273Z,14.32
2019-04-19T08:04:38.052Z,14.51
2019-04-19T08:06:53.476Z,14.45
2019-04-19T08:09:43.090Z,14.41
2019-04-19T08:14:26.233Z,14.64
2019-04-19T08:17:30.697Z,14.71
2019-04-19T08:29:13.311Z,15.15
2019-04-19T08:31:31.862Z,15.28
2019-04-19T08:34:02.729Z,15.23
2019-04-19T08:36:42.285Z,15.09
2019-04-19T08:39:20.702Z,15.15
2019-04-19T08:41:57.378Z,15.09
2019-04-19T08:44:18.053Z,15.04
2019-04-19T08:46:43.022Z,14.78
2019-04-19T08:49:35.174Z,14.92
2019-04-19T08:52:08.433Z,15.13
2019-04-19T08:54:57.795Z,15.39
2019-04-19T08:57:12.552Z,15.50
2019-04-19T08:59:54.040Z,15.53
2019-04-19T09:02:28.840Z,15.58
2019-04-19T09:05:02.984Z,15.38
2019-04-19T09:10:17.496Z,15.24
2019-04-19T09:12:31.027Z,15.25
2019-04-19T09:15:02.194Z,15.23
2019-04-19T09:17:47.502Z,15.15
2019-04-19T09:22:31.623Z,15.18
2019-04-19T09:24:54.862Z,15.34
2019-04-19T09:27:52.208Z,15.36
2019-04-19T09:30:08.847Z,15.82
2019-04-19T09:32:21.570Z,15.78
2019-04-19T09:34:55.882Z,15.51
2019-04-19T09:37:33.692Z,15.56
2019-04-19T09:39:59.825Z,15.33
2019-04-19T09:42:36.239Z,15.29
2019-04-19T09:44:54.124Z,15.33
2019-04-19T09:47:20.885Z,15.24
2019-04-19T09:50:03.984Z,15.22
2019-04-19T09:52:42.760Z,15.26
2019-04-19T09:55:18.390Z,15.48
2019-04-19T09:57:37.070Z,15.42
2019-04-19T10:00:02.129Z,15.31
2019-04-19T10:02:28.873Z,15.22
2019-04-19T10:04:53.134Z,15.36
2019-04-19T10:07:22.902Z,15.47
2019-04-19T10:09:57.067Z,15.60
2019-04-19T10:12:22.300Z,15.60
2019-04-19T10:14:51.448Z,15.50
2019-04-19T10:17:22.521Z,15.46
2019-04-19T10:19:51.348Z,15.55
2019-04-19T10:22:20.862Z,15.64
2019-04-19T10:24:52.220Z,15.90
2019-04-19T10:27:29.730Z,16.12
2019-04-19T10:29:59.817Z,16.26
2019-04-19T10:32:32.887Z,16.69
2019-04-19T10:35:01.903Z,16.30
2019-04-19T10:37:31.583Z,16.46
2019-04-19T10:40:01.985Z,16.04
2019-04-19T10:42:31.538Z,16.51
2019-04-19T10:45:00.406Z,16.85
2019-04-19T10:47:29.482Z,16.83
2019-04-19T10:50:11.854Z,16.92
2019-04-19T10:52:29.310Z,17.09
2019-04-19T10:54:59.340Z,17.63
2019-04-19T10:57:29.708Z,18.23
2019-04-19T11:00:01.007Z,18.22
2019-04-19T11:02:32.118Z,18.42
2019-04-19T11:05:02.857Z,17.96
2019-04-19T11:07:32.801Z,18.14
2019-04-19T11:10:02.055Z,18.06
2019-04-19T11:12:32.176Z,18.21
2019-04-19T11:15:02.509Z,18.39
2019-04-19T11:17:31.741Z,18.18
2019-04-19T11:20:17.876Z,18.22
2019-04-19T11:22:32.080Z,18.56
2019-04-19T11:25:02.023Z,19.47
2019-04-19T11:27:31.112Z,19.57
2019-04-19T11:30:05.334Z,19.85
2019-04-19T11:32:48.661Z,18.85
2019-04-19T11:35:17.423Z,18.94
2019-04-19T11:37:47.379Z,18.00
2019-04-19T11:40:17.324Z,17.78
2019-04-19T11:42:46.283Z,17.50
2019-04-19T11:45:15.777Z,17.47
2019-04-19T11:47:45.134Z,17.72
2019-04-19T11:50:14.132Z,17.65
2019-04-19T11:53:06.148Z,17.97
2019-04-19T11:55:38.344Z,18.16
2019-04-19T11:58:08.547Z,18.00
2019-04-19T12:00:43.657Z,17.67
2019-04-19T12:03:16.291Z,17.61
2019-04-19T12:05:44.773Z,17.55
2019-04-19T12:08:13.259Z,17.65
2019-04-19T12:10:42.005Z,17.72
2019-04-19T12:13:11.038Z,17.95
2019-04-19T12:15:40.084Z,17.74
2019-04-19T12:18:08.763Z,17.88
2019-04-19T12:20:37.473Z,18.06
2019-04-19T12:23:07.349Z,18.07
2019-04-19T12:25:37.578Z,18.15
2019-04-19T12:28:06.139Z,18.28
2019-04-19T12:30:38.421Z,18.27
2019-04-19T12:33:05.619Z,18.15
2019-04-19T12:35:34.972Z,18.24
2019-04-19T12:38:03.963Z,18.23
2019-04-19T12:40:38.383Z,17.85
2019-04-19T12:43:07.720Z,17.71
2019-04-19T12:45:36.382Z,17.73
2019-04-19T12:48:05.321Z,17.86
2019-04-19T12:50:36.165Z,17.78
2019-04-19T12:53:04.330Z,17.65
2019-04-19T12:55:32.872Z,17.83
2019-04-19T12:58:02.014Z,17.87
2019-04-19T13:00:50.627Z,17.75
2019-04-19T13:03:38.034Z,17.63
2019-04-19T13:06:09.433Z,17.65
2019-04-19T13:08:39.067Z,17.73
2019-04-19T13:11:09.081Z,17.36
2019-04-19T13:13:37.791Z,17.49
2019-04-19T13:16:06.413Z,17.78
2019-04-19T13:18:36.163Z,17.80
2019-04-19T13:21:06.023Z,17.90
2019-04-19T13:23:34.690Z,18.10
2019-04-19T13:26:03.366Z,18.16
2019-04-19T13:28:33.278Z,17.92
2019-04-19T13:31:02.823Z,18.00
2019-04-19T13:33:32.674Z,18.07
2019-04-19T13:36:03.521Z,18.07
2019-04-19T13:39:03.820Z,18.22
2019-04-19T13:41:54.775Z,18.30
2019-04-19T13:44:23.310Z,18.36
2019-04-19T13:46:52.916Z,18.27
2019-04-19T13:49:22.402Z,18.24
2019-04-19T13:51:54.510Z,18.32
2019-04-19T13:54:23.105Z,18.29
2019-04-19T13:56:52.712Z,18.35
2019-04-19T13:59:22.376Z,18.23
2019-04-19T14:01:52.416Z,18.22
2019-04-19T14:04:21.984Z,18.30
2019-04-19T14:06:50.683Z,18.34
2019-04-19T14:09:20.984Z,18.26
2019-04-19T14:11:49.608Z,18.28
2019-04-19T14:14:18.520Z,18.18
2019-04-19T14:16:47.918Z,18.07
2019-04-19T14:19:16.566Z,18.22
2019-04-19T14:21:45.076Z,18.32
2019-04-19T14:24:13.636Z,18.48
2019-04-19T14:26:48.698Z,18.48
2019-04-19T14:29:12.898Z,18.35
2019-04-19T14:31:42.154Z,18.44
2019-04-19T14:34:11.106Z,18.37
2019-04-19T14:36:40.232Z,18.40
2019-04-19T14:39:09.049Z,18.55
2019-04-19T14:41:38.054Z,18.50
2019-04-19T14:44:07.228Z,18.45
2019-04-19T14:46:36.666Z,18.61
2019-04-19T14:49:05.294Z,18.63
2019-04-19T14:51:37.075Z,18.53
2019-04-19T14:54:04.780Z,18.39
2019-04-19T14:56:34.055Z,18.31
2019-04-19T14:59:03.026Z,18.28
2019-04-19T15:01:57.293Z,18.40
2019-04-19T15:04:54.166Z,18.48
2019-04-19T15:07:23.067Z,18.04
2019-04-19T15:09:51.647Z,17.82
2019-04-19T15:12:20.699Z,17.67
2019-04-19T15:14:49.563Z,17.57
2019-04-19T15:17:19.424Z,17.64
2019-04-19T15:19:48.352Z,17.54
2019-04-19T15:22:17.261Z,17.57
2019-04-19T15:24:47.143Z,17.20
2019-04-19T15:27:16.912Z,16.73
2019-04-19T15:29:45.581Z,16.62
2019-04-19T15:32:14.650Z,16.21
2019-04-19T15:34:43.524Z,15.91
2019-04-19T15:37:16.269Z,15.45
2019-04-19T15:39:46.231Z,14.31
2019-04-19T15:42:16.185Z,14.31
2019-04-19T15:44:45.094Z,14.41
2019-04-19T15:47:14.700Z,13.48
2019-04-19T15:49:44.025Z,13.92
2019-04-19T15:52:12.600Z,13.81
2019-04-19T15:54:41.910Z,13.02
2019-04-19T15:57:10.496Z,13.06
2019-04-19T15:59:39.249Z,13.09
2019-04-19T16:02:29.868Z,12.20
2019-04-19T16:05:36.088Z,12.15
2019-04-19T16:08:24.778Z,11.82
2019-04-19T16:11:22.710Z,11.94
2019-04-19T16:13:52.157Z,11.80
2019-04-19T16:16:22.865Z,11.98
2019-04-19T16:18:52.103Z,12.32
2019-04-19T16:21:28.251Z,12.23
2019-04-19T16:23:51.359Z,11.53
2019-04-19T16:26:21.133Z,11.53
2019-04-19T16:28:49.771Z,11.51
2019-04-19T16:31:18.380Z,11.36
2019-04-19T16:33:47.953Z,12.10
2019-04-19T16:36:16.894Z,11.99
2019-04-19T16:38:46.652Z,11.66
2019-04-19T16:41:15.427Z,11.63
2019-04-19T16:43:43.847Z,11.79
2019-04-19T16:46:18.595Z,11.75
2019-04-19T16:48:42.852Z,11.65
2019-04-19T16:51:12.593Z,11.66
2019-04-19T16:53:42.265Z,11.35
2019-04-19T16:56:11.958Z,11.32
2019-04-19T16:58:40.594Z,11.25
2019-04-19T17:01:10.308Z,11.92
2019-04-19T17:03:39.494Z,11.48
2019-04-19T17:06:08.696Z,11.55
2019-04-19T17:08:38.595Z,11.79
2019-04-19T17:11:07.904Z,11.37
2019-04-19T17:13:36.795Z,11.25
2019-04-19T17:16:17.784Z,11.19
2019-04-19T17:19:04.344Z,11.26
2019-04-19T17:21:46.215Z,11.44
2019-04-19T17:24:04.968Z,11.43
2019-04-19T17:26:33.561Z,11.34
2019-04-19T17:29:02.041Z,11.48
2019-04-19T17:31:31.972Z,11.83
2019-04-19T17:34:01.884Z,11.09
2019-04-19T17:36:30.723Z,11.07
2019-04-19T17:39:00.070Z,11.19
2019-04-19T17:41:28.828Z,11.36
2019-04-19T17:43:57.502Z,11.39
2019-04-19T17:46:26.500Z,11.42
2019-04-19T17:48:55.255Z,11.40
2019-04-19T17:51:24.892Z,11.31
2019-04-19T17:53:53.909Z,11.01
2019-04-19T17:56:23.695Z,11.00
2019-04-19T17:58:52.436Z,11.09
2019-04-19T18:01:22.124Z,10.95
2019-04-19T18:03:51.261Z,10.78
2019-04-19T18:06:20.369Z,11.12
2019-04-19T18:08:49.181Z,11.11
2019-04-19T18:11:23.982Z,10.92
2019-04-19T18:13:49.035Z,11.04
2019-04-19T18:16:18.564Z,10.92
2019-04-19T18:18:49.870Z,10.78
2019-04-19T18:21:17.847Z,10.91
2019-04-19T18:23:52.804Z,11.09
2019-04-19T18:26:24.401Z,11.06
2019-04-19T18:28:49.730Z,10.91
2019-04-19T18:31:25.977Z,10.66
2019-04-19T18:33:58.858Z,10.62
2019-04-19T18:36:25.265Z,10.55
2019-04-19T18:38:51.911Z,10.73
2019-04-19T18:41:21.112Z,10.71
2019-04-19T18:44:02.018Z,10.68
2019-04-19T18:46:20.580Z,10.96
2019-04-19T18:48:49.573Z,11.04
2019-04-19T18:51:24.685Z,10.71
2019-04-19T18:53:59.887Z,10.76
2019-04-19T18:56:22.153Z,10.91
2019-04-19T18:58:50.263Z,10.75
2019-04-19T19:01:27.116Z,10.70
2019-04-19T19:03:50.143Z,10.88
2019-04-19T19:06:20.066Z,10.97
2019-04-19T19:08:54.393Z,11.31
2019-04-19T19:11:21.387Z,10.94
2019-04-19T19:13:51.080Z,10.68
2019-04-19T19:16:23.514Z,10.86
2019-04-19T19:18:52.684Z,10.87
2019-04-19T19:21:20.451Z,10.93
2019-04-19T19:24:16.923Z,11.06
2019-04-19T19:26:27.477Z,10.78
2019-04-19T19:28:50.202Z,10.84
2019-04-19T19:31:19.052Z,11.04
2019-04-19T19:33:50.170Z,10.87
2019-04-19T19:36:23.362Z,10.89
2019-04-19T19:39:00.349Z,10.93
2019-04-19T19:41:42.407Z,11.05
2019-04-19T19:44:05.919Z,10.90
2019-04-19T19:46:47.556Z,10.64
2019-04-19T19:49:29.141Z,10.68
2019-04-19T19:51:39.542Z,10.87
2019-04-19T19:54:37.237Z,10.70
2019-04-19T19:56:53.902Z,10.92
2019-04-19T19:59:07.643Z,10.96
2019-04-19T20:01:37.238Z,10.85
2019-04-19T20:03:58.503Z,11.09
2019-04-19T20:06:30.712Z,11.18
2019-04-19T20:08:59.284Z,11.25
2019-04-19T20:11:31.087Z,11.13
2019-04-19T20:14:01.127Z,11.03
2019-04-19T20:16:30.590Z,10.83
2019-04-19T20:19:02.075Z,11.41
2019-04-19T20:21:30.300Z,11.28
2019-04-19T20:24:08.351Z,10.77
2019-04-19T20:26:35.954Z,10.93
2019-04-19T20:29:06.939Z,10.94
2019-04-19T20:31:34.495Z,10.93
2019-04-19T20:34:02.638Z,11.13
2019-04-19T20:36:49.688Z,11.05
2019-04-19T20:39:27.091Z,10.92
2019-04-19T20:41:51.874Z,10.97
2019-04-19T20:44:40.090Z,10.65
2019-04-19T20:46:50.470Z,10.64
2019-04-19T20:49:19.329Z,10.48
2019-04-19T20:52:03.110Z,10.34
2019-04-19T20:54:49.340Z,10.78
2019-04-19T20:57:35.375Z,10.84
2019-04-19T20:59:50.709Z,10.89
2019-04-19T21:02:23.847Z,10.94
2019-04-19T21:04:52.676Z,10.73
2019-04-19T21:07:20.058Z,10.37
2019-04-19T21:09:47.486Z,10.15
2019-04-19T21:12:22.589Z,10.52
2019-04-19T21:14:47.073Z,10.77
2019-04-19T21:17:16.996Z,10.60
2019-04-19T21:19:48.725Z,10.40
2019-04-19T21:22:23.727Z,10.46
2019-04-19T21:25:02.113Z,10.26
2019-04-19T21:27:22.462Z,10.46
2019-04-19T21:29:48.051Z,10.52
2019-04-19T21:32:24.287Z,10.66
2019-04-19T21:34:48.176Z,10.45
2019-04-19T21:37:23.350Z,9.93
2019-04-19T21:39:51.220Z,9.99
2019-04-19T21:42:20.976Z,10.09
2019-04-19T21:44:52.691Z,10.13
2019-04-19T21:47:19.866Z,9.98
2019-04-19T21:49:53.132Z,9.99
2019-04-19T21:52:21.937Z,10.53
2019-04-19T21:54:51.112Z,10.53
2019-04-19T21:57:26.396Z,10.62
2019-04-19T21:59:50.403Z,10.31
2019-04-19T22:02:33.195Z,10.48
2019-04-19T22:04:57.380Z,10.25
2019-04-19T22:07:26.013Z,10.22
2019-04-19T22:09:58.897Z,10.14
2019-04-19T22:12:26.258Z,10.18
2019-04-19T22:14:59.945Z,10.16
2019-04-19T22:17:26.858Z,10.48
2019-04-19T22:19:57.539Z,10.12
2019-04-19T22:22:29.989Z,9.85
2019-04-19T22:24:59.829Z,9.72
2019-04-19T22:27:27.441Z,9.62
2019-04-19T22:29:56.099Z,9.66
2019-04-19T22:32:25.339Z,9.95
2019-04-19T22:34:54.837Z,10.01
2019-04-19T22:37:29.086Z,9.77
2019-04-19T22:39:54.115Z,9.82
2019-04-19T22:42:22.590Z,9.76
2019-04-19T22:44:51.024Z,9.59
2019-04-19T22:47:23.445Z,9.83
2019-04-19T22:49:50.016Z,9.97
2019-04-19T22:52:18.651Z,9.90
2019-04-19T22:54:48.729Z,9.76
2019-04-19T22:57:21.952Z,9.50
2019-04-19T22:59:53.336Z,9.54
2019-04-19T23:02:40.701Z,9.55
2019-04-19T23:05:08.673Z,9.82
2019-04-19T23:07:44.927Z,9.90
2019-04-19T23:10:08.842Z,9.95
2019-04-19T23:12:39.590Z,9.87
2019-04-19T23:15:18.644Z,10.10
2019-04-19T23:17:42.633Z,10.22
2019-04-19T23:20:09.598Z,10.03
2019-04-19T23:22:42.605Z,10.12
2019-04-19T23:25:11.264Z,10.14
2019-04-19T23:27:45.984Z,10.37
2019-04-19T23:30:18.809Z,10.51
2019-04-19T23:32:46.286Z,10.14
2019-04-19T23:35:16.250Z,10.22
2019-04-19T23:37:45.439Z,10.04
2019-04-19T23:40:15.143Z,10.08
2019-04-19T23:42:46.812Z,10.22
2019-04-19T23:45:14.877Z,9.99
2019-04-19T23:47:48.265Z,10.01
2019-04-19T23:50:15.485Z,10.04
2019-04-19T23:52:50.973Z,9.90
2019-04-19T23:55:14.900Z,9.94
2019-04-19T23:57:48.504Z,10.11
